createdAt,value
2022-10-20T00:01:17.015Z,4.60
2022-10-20T00:03:44.846Z,4.43
2022-10-20T00:06:25.186Z,4.47
2022-10-20T00:08:54.324Z,3.90
2022-10-20T00:11:23.938Z,4.47
2022-10-20T00:13:53.695Z,4.82
2022-10-20T00:16:21.544Z,4.18
2022-10-20T00:18:49.193Z,4.03
2022-10-20T00:21:24.275Z,3.95
2022-10-20T00:23:51.720Z,3.72
2022-10-20T00:26:24.773Z,3.85
2022-10-20T00:28:52.980Z,3.70
2022-10-20T00:31:22.323Z,3.90
2022-10-20T00:33:49.581Z,4.90
2022-10-20T00:36:20.060Z,3.83
2022-10-20T00:38:47.176Z,3.72
2022-10-20T00:41:20.912Z,3.53
2022-10-20T00:44:01.686Z,4.18
2022-10-20T00:46:39.563Z,3.40
2022-10-20T00:49:22.605Z,3.22
2022-10-20T00:51:54.777Z,3.28
2022-10-20T00:54:26.072Z,3.38
2022-10-20T00:56:56.140Z,3.28
2022-10-20T00:59:30.248Z,3.50
2022-10-20T01:02:00.026Z,2.90
2022-10-20T01:04:30.466Z,3.83
2022-10-20T01:06:58.787Z,2.75
2022-10-20T01:09:26.016Z,3.53
2022-10-20T01:12:10.478Z,3.35
2022-10-20T01:14:49.017Z,3.10
2022-10-20T01:17:42.861Z,2.92
2022-10-20T01:20:36.943Z,3.08
2022-10-20T01:23:24.097Z,3.47
2022-10-20T01:26:16.888Z,3.00
2022-10-20T01:29:01.192Z,3.28
2022-10-20T01:32:03.675Z,3.10
2022-10-20T01:34:32.997Z,2.92
2022-10-20T01:37:28.137Z,3.40
2022-10-20T01:40:31.940Z,2.58
2022-10-20T01:43:04.984Z,2.15
2022-10-20T01:45:35.456Z,2.85
2022-10-20T01:48:06.958Z,2.90
2022-10-20T01:50:35.921Z,2.67
2022-10-20T01:53:03.986Z,2.67
2022-10-20T01:55:31.657Z,2.90
2022-10-20T01:58:10.373Z,3.03
2022-10-20T02:00:39.362Z,2.80
2022-10-20T02:03:47.108Z,2.20
2022-10-20T02:07:09.696Z,2.80
2022-10-20T02:09:44.494Z,2.38
2022-10-20T02:12:22.736Z,2.38
2022-10-20T02:14:50.832Z,2.45
2022-10-20T02:17:20.134Z,2.88
2022-10-20T02:19:50.502Z,2.50
2022-10-20T02:22:19.557Z,2.70
2022-10-20T02:24:47.964Z,2.70
2022-10-20T02:27:30.847Z,2.70
2022-10-20T02:30:04.225Z,2.40
2022-10-20T02:32:33.844Z,2.53
2022-10-20T02:35:06.759Z,3.03
2022-10-20T02:37:34.559Z,2.28
2022-10-20T02:40:01.826Z,2.33
2022-10-20T02:42:29.334Z,2.60
2022-10-20T02:44:56.217Z,2.75
2022-10-20T02:47:23.415Z,2.60
2022-10-20T02:49:50.213Z,2.03
2022-10-20T02:52:17.186Z,2.47
2022-10-20T02:54:44.340Z,2.30
2022-10-20T02:57:11.156Z,2.28
2022-10-20T02:59:38.225Z,2.40
2022-10-20T03:02:05.364Z,2.38
2022-10-20T03:04:32.201Z,1.92
2022-10-20T03:06:59.644Z,2.63
2022-10-20T03:09:26.618Z,2.90
2022-10-20T03:11:53.875Z,2.47
2022-10-20T03:14:20.700Z,2.33
2022-10-20T03:16:47.764Z,2.38
2022-10-20T03:19:14.638Z,2.28
2022-10-20T03:21:41.510Z,3.10
2022-10-20T03:24:08.920Z,2.83
2022-10-20T03:26:36.210Z,2.80
2022-10-20T03:29:03.420Z,2.47
2022-10-20T03:31:30.289Z,2.65
2022-10-20T03:33:57.116Z,2.55
2022-10-20T03:36:24.365Z,2.72
2022-10-20T03:38:51.230Z,2.20
2022-10-20T03:41:20.218Z,2.55
2022-10-20T03:43:47.041Z,2.60
2022-10-20T03:46:13.971Z,2.78
2022-10-20T03:48:41.440Z,2.67
2022-10-20T03:51:11.570Z,2.30
2022-10-20T03:53:39.056Z,2.42
2022-10-20T03:56:16.087Z,2.92
2022-10-20T03:58:42.904Z,2.28
2022-10-20T04:01:15.992Z,2.63
2022-10-20T04:03:44.834Z,2.20
2022-10-20T04:06:15.957Z,2.35
2022-10-20T04:08:43.034Z,2.42
2022-10-20T04:11:10.110Z,2.55
2022-10-20T04:13:37.296Z,2.65
2022-10-20T04:16:04.240Z,2.88
2022-10-20T04:21:25.700Z,2.70
2022-10-20T04:23:52.833Z,2.17
2022-10-20T04:26:19.916Z,2.78
2022-10-20T04:28:47.272Z,2.20
2022-10-20T04:31:14.278Z,2.72
2022-10-20T04:33:41.199Z,2.95
2022-10-20T04:36:12.445Z,2.80
2022-10-20T04:38:39.703Z,2.63
2022-10-20T04:41:06.736Z,2.42
2022-10-20T04:43:34.866Z,2.83
2022-10-20T04:46:08.361Z,2.67
2022-10-20T04:48:37.462Z,2.45
2022-10-20T04:51:11.154Z,2.90
2022-10-20T04:53:38.753Z,2.88
2022-10-20T04:56:08.740Z,3.08
2022-10-20T04:58:42.232Z,2.83
2022-10-20T05:01:10.138Z,3.10
2022-10-20T05:03:43.605Z,3.22
2022-10-20T05:06:32.796Z,3.78
2022-10-20T05:09:05.479Z,2.88
2022-10-20T05:11:36.715Z,2.80
2022-10-20T05:14:03.860Z,2.80
2022-10-20T05:16:31.126Z,3.38
2022-10-20T05:18:58.168Z,3.22
2022-10-20T05:21:29.165Z,3.00
2022-10-20T05:24:02.581Z,3.03
2022-10-20T05:26:34.422Z,3.60
2022-10-20T05:29:04.059Z,3.40
2022-10-20T05:31:30.972Z,3.72
2022-10-20T05:33:58.074Z,3.30
2022-10-20T05:36:27.430Z,3.45
2022-10-20T05:38:56.117Z,3.60
2022-10-20T05:41:33.434Z,3.88
2022-10-20T05:44:06.188Z,3.65
2022-10-20T05:46:37.805Z,3.67
2022-10-20T05:49:04.866Z,4.22
2022-10-20T05:51:35.532Z,3.63
2022-10-20T05:54:03.555Z,4.05
2022-10-20T05:59:28.632Z,4.15
2022-10-20T06:01:55.469Z,3.95
2022-10-20T06:04:24.152Z,4.05
2022-10-20T06:06:53.050Z,4.35
2022-10-20T06:09:21.670Z,5.07
2022-10-20T06:11:49.845Z,4.82
2022-10-20T06:14:17.653Z,4.97
2022-10-20T06:16:44.833Z,4.25
2022-10-20T06:19:11.924Z,4.93
2022-10-20T06:21:38.923Z,5.13
2022-10-20T06:24:07.286Z,4.50
2022-10-20T06:26:38.405Z,4.85
2022-10-20T06:29:09.787Z,4.70
2022-10-20T06:31:42.766Z,4.45
2022-10-20T06:34:14.117Z,4.20
2022-10-20T06:36:42.183Z,4.28
2022-10-20T06:39:13.630Z,4.82
2022-10-20T06:41:41.325Z,4.82
2022-10-20T06:44:20.193Z,5.10
2022-10-20T06:46:47.481Z,6.72
2022-10-20T06:49:15.353Z,5.82
2022-10-20T06:51:44.184Z,5.78
2022-10-20T06:54:11.610Z,4.78
2022-10-20T06:56:39.953Z,5.60
2022-10-20T06:59:07.606Z,5.43
2022-10-20T07:01:37.138Z,5.95
2022-10-20T07:04:11.686Z,5.90
2022-10-20T07:06:41.852Z,6.03
2022-10-20T07:09:14.776Z,5.55
2022-10-20T07:11:42.564Z,4.70
2022-10-20T07:14:13.573Z,4.85
2022-10-20T07:16:40.827Z,4.97
2022-10-20T07:19:07.814Z,5.30
2022-10-20T07:21:39.146Z,4.70
2022-10-20T07:24:07.953Z,4.88
2022-10-20T07:26:39.495Z,4.47
2022-10-20T07:29:06.901Z,5.15
2022-10-20T07:31:41.957Z,4.60
2022-10-20T07:34:24.376Z,4.70
2022-10-20T07:36:53.087Z,4.55
2022-10-20T07:39:20.199Z,4.15
2022-10-20T07:41:48.036Z,4.40
2022-10-20T07:44:16.228Z,4.28
2022-10-20T07:49:50.226Z,4.50
2022-10-20T07:52:18.318Z,4.00
2022-10-20T07:54:45.574Z,4.05
2022-10-20T07:57:12.595Z,4.38
2022-10-20T07:59:39.591Z,4.53
2022-10-20T08:02:06.732Z,4.68
2022-10-20T08:04:36.981Z,3.92
2022-10-20T08:07:03.892Z,3.53
2022-10-20T08:09:30.790Z,4.32
2022-10-20T08:11:57.600Z,3.63
2022-10-20T08:14:27.287Z,4.57
2022-10-20T08:16:57.471Z,4.03
2022-10-20T08:22:05.913Z,4.18
2022-10-20T08:24:32.752Z,4.10
2022-10-20T08:27:01.938Z,4.63
2022-10-20T08:29:30.213Z,3.53
2022-10-20T08:31:58.332Z,3.72
2022-10-20T08:34:26.203Z,3.92
2022-10-20T08:36:53.929Z,3.95
2022-10-20T08:39:21.753Z,3.70
2022-10-20T08:42:09.311Z,3.72
2022-10-20T08:44:41.273Z,3.58
2022-10-20T08:47:34.752Z,3.50
2022-10-20T08:50:05.319Z,3.55
2022-10-20T08:52:33.079Z,3.80
2022-10-20T08:55:00.113Z,3.67
2022-10-20T08:57:34.556Z,3.40
2022-10-20T09:00:15.637Z,3.30
2022-10-20T09:02:43.017Z,3.65
2022-10-20T09:05:13.962Z,3.55
2022-10-20T09:07:43.990Z,3.33
2022-10-20T09:10:49.070Z,3.47
2022-10-20T09:13:24.279Z,3.50
2022-10-20T09:16:05.069Z,3.60
2022-10-20T09:18:33.606Z,3.85
2022-10-20T09:21:09.895Z,3.97
2022-10-20T09:23:47.617Z,3.67
2022-10-20T09:26:30.723Z,3.78
2022-10-20T09:29:14.670Z,3.22
2022-10-20T09:31:54.734Z,3.33
2022-10-20T09:34:33.328Z,2.78
2022-10-20T09:37:09.368Z,3.83
2022-10-20T09:39:57.003Z,3.47
2022-10-20T09:42:49.005Z,4.00
2022-10-20T09:45:15.785Z,3.30
2022-10-20T09:47:46.847Z,3.13
2022-10-20T09:50:36.687Z,3.13
2022-10-20T09:53:18.539Z,3.47
2022-10-20T09:55:52.783Z,3.35
2022-10-20T09:58:38.813Z,3.38
2022-10-20T10:01:18.232Z,2.78
2022-10-20T10:03:56.056Z,2.95
2022-10-20T10:06:37.863Z,3.08
2022-10-20T10:09:32.620Z,2.97
2022-10-20T10:12:05.052Z,3.20
2022-10-20T10:14:35.301Z,3.47
2022-10-20T10:17:02.530Z,2.83
2022-10-20T10:19:33.874Z,3.10
2022-10-20T10:22:03.045Z,2.60
2022-10-20T10:24:48.527Z,2.72
2022-10-20T10:27:27.637Z,2.10
2022-10-20T10:30:28.509Z,1.90
2022-10-20T10:32:56.049Z,2.45
2022-10-20T10:35:33.535Z,2.50
2022-10-20T10:38:01.097Z,2.38
2022-10-20T10:41:08.767Z,1.95
2022-10-20T10:44:01.468Z,1.92
2022-10-20T10:47:08.214Z,2.28
2022-10-20T10:50:02.025Z,2.25
2022-10-20T10:52:59.331Z,2.38
2022-10-20T10:58:34.635Z,1.90
2022-10-20T11:01:47.328Z,2.05
2022-10-20T11:04:54.350Z,2.03
2022-10-20T11:07:46.280Z,2.10
2022-10-20T11:10:36.336Z,1.90
2022-10-20T11:13:27.037Z,2.10
2022-10-20T11:16:19.798Z,2.53
2022-10-20T11:19:24.727Z,1.98
2022-10-20T11:22:23.264Z,2.05
2022-10-20T11:25:39.040Z,1.90
2022-10-20T11:28:44.671Z,1.80
2022-10-20T11:31:40.420Z,1.65
2022-10-20T11:34:29.968Z,1.55
2022-10-20T11:37:17.504Z,1.58
2022-10-20T11:40:15.402Z,1.60
2022-10-20T11:42:54.129Z,1.55
2022-10-20T11:45:32.122Z,2.17
2022-10-20T11:48:26.526Z,1.50
2022-10-20T11:51:30.275Z,1.88
2022-10-20T11:54:31.559Z,1.60
2022-10-20T11:57:29.558Z,1.75
2022-10-20T12:00:11.379Z,1.63
2022-10-20T12:03:15.206Z,1.80
2022-10-20T12:06:00.548Z,1.58
2022-10-20T12:09:14.150Z,1.73
2022-10-20T12:12:03.742Z,1.90
2022-10-20T12:14:50.190Z,1.48
2022-10-20T12:19:52.011Z,1.30
2022-10-20T12:22:19.023Z,2.05
2022-10-20T12:24:54.924Z,1.73
2022-10-20T12:27:24.165Z,1.60
2022-10-20T12:30:05.832Z,1.60
2022-10-20T12:32:55.708Z,1.75
2022-10-20T12:35:22.779Z,1.67
2022-10-20T12:38:03.897Z,1.67
2022-10-20T12:40:45.704Z,1.80
2022-10-20T12:43:29.648Z,1.58
2022-10-20T12:46:10.205Z,1.65
2022-10-20T12:48:45.006Z,1.67
2022-10-20T12:51:25.035Z,1.60
2022-10-20T12:54:04.824Z,1.45
2022-10-20T12:56:39.745Z,1.77
2022-10-20T12:59:39.638Z,1.67
2022-10-20T13:02:09.503Z,1.98
2022-10-20T13:05:07.264Z,2.10
2022-10-20T13:08:19.761Z,1.90
2022-10-20T13:10:48.072Z,1.80
2022-10-20T13:13:17.822Z,1.73
2022-10-20T13:15:44.508Z,1.60
2022-10-20T13:18:11.874Z,1.90
2022-10-20T13:21:03.313Z,16.08
2022-10-20T13:23:42.310Z,3.35
2022-10-20T13:26:23.301Z,2.08
2022-10-20T13:28:53.615Z,1.88
2022-10-20T13:31:35.690Z,2.22
2022-10-20T13:34:37.035Z,1.92
2022-10-20T13:37:37.153Z,2.15
2022-10-20T13:40:36.667Z,1.70
2022-10-20T13:43:35.952Z,2.22
2022-10-20T13:46:08.642Z,2.10
2022-10-20T13:49:25.468Z,2.05
2022-10-20T13:51:58.047Z,1.77
2022-10-20T13:54:29.420Z,2.10
2022-10-20T13:56:57.630Z,1.90
2022-10-20T13:59:28.440Z,2.10
2022-10-20T14:02:00.607Z,1.77
2022-10-20T14:04:36.501Z,2.03
2022-10-20T14:07:17.446Z,2.20
2022-10-20T14:09:47.629Z,2.55
2022-10-20T14:12:24.695Z,1.85
2022-10-20T14:14:51.584Z,1.90
2022-10-20T14:17:21.937Z,2.00
2022-10-20T14:19:51.541Z,1.63
2022-10-20T14:22:25.345Z,1.90
2022-10-20T14:24:57.536Z,2.00
2022-10-20T14:27:31.367Z,1.52
2022-10-20T14:30:00.231Z,1.90
2022-10-20T14:32:31.092Z,1.73
2022-10-20T14:35:11.810Z,1.67
2022-10-20T14:37:42.150Z,1.95
2022-10-20T14:40:26.629Z,1.60
2022-10-20T14:42:59.814Z,1.60
2022-10-20T14:45:28.894Z,1.55
2022-10-20T14:47:58.921Z,1.80
2022-10-20T14:50:35.394Z,2.15
2022-10-20T14:53:27.311Z,1.80
2022-10-20T14:55:56.320Z,1.67
2022-10-20T14:58:30.311Z,2.60
2022-10-20T15:01:28.901Z,2.05
2022-10-20T15:04:15.690Z,1.65
2022-10-20T15:06:44.292Z,1.83
2022-10-20T15:09:33.063Z,2.05
2022-10-20T15:12:30.255Z,1.90
2022-10-20T15:15:12.605Z,2.13
2022-10-20T15:18:09.600Z,2.22
2022-10-20T15:20:42.361Z,1.92
2022-10-20T15:23:19.415Z,2.15
2022-10-20T15:26:01.298Z,2.92
2022-10-20T15:28:38.732Z,2.95
2022-10-20T15:31:16.994Z,3.28
2022-10-20T15:33:43.870Z,2.92
2022-10-20T15:36:21.130Z,2.60
2022-10-20T15:38:51.652Z,2.78
2022-10-20T15:41:31.427Z,3.72
2022-10-20T15:44:09.920Z,3.28
2022-10-20T15:46:36.768Z,3.28
2022-10-20T15:49:04.085Z,3.50
2022-10-20T15:51:35.349Z,3.25
2022-10-20T15:54:03.046Z,2.60
2022-10-20T15:56:29.867Z,2.92
2022-10-20T15:58:56.916Z,2.85
2022-10-20T16:01:23.888Z,2.55
2022-10-20T16:03:51.196Z,2.38
2022-10-20T16:06:19.497Z,2.67
2022-10-20T16:08:48.875Z,2.85
2022-10-20T16:11:18.377Z,2.65
2022-10-20T16:13:45.329Z,2.60
2022-10-20T16:16:18.138Z,3.45
2022-10-20T16:18:45.388Z,3.88
2022-10-20T16:21:13.020Z,3.20
2022-10-20T16:23:42.245Z,4.18
2022-10-20T16:26:13.272Z,3.58
2022-10-20T16:28:40.146Z,3.45
2022-10-20T16:31:10.912Z,3.63
2022-10-20T16:33:38.215Z,3.30
2022-10-20T16:36:14.998Z,3.20
2022-10-20T16:38:42.885Z,3.72
2022-10-20T16:41:14.910Z,3.42
2022-10-20T16:43:45.769Z,3.47
2022-10-20T16:46:14.736Z,3.83
2022-10-20T16:48:42.891Z,3.97
2022-10-20T16:51:15.975Z,3.75
2022-10-20T16:53:43.622Z,3.20
2022-10-20T16:56:15.169Z,3.67
2022-10-20T16:58:45.317Z,4.47
2022-10-20T17:01:13.771Z,4.22
2022-10-20T17:03:52.617Z,3.50
2022-10-20T17:06:23.371Z,3.70
2022-10-20T17:08:50.557Z,3.67
2022-10-20T17:11:24.658Z,3.78
2022-10-20T17:13:52.309Z,3.80
2022-10-20T17:16:28.613Z,3.45
2022-10-20T17:18:57.713Z,5.55
2022-10-20T17:21:25.321Z,4.10
2022-10-20T17:23:52.373Z,3.70
2022-10-20T17:26:22.507Z,3.65
2022-10-20T17:28:50.120Z,3.67
2022-10-20T17:31:18.237Z,3.50
2022-10-20T17:33:46.555Z,3.60
2022-10-20T17:36:14.113Z,3.55
2022-10-20T17:38:42.677Z,3.55
2022-10-20T17:41:13.607Z,3.95
2022-10-20T17:43:40.748Z,3.95
2022-10-20T17:46:13.003Z,3.33
2022-10-20T17:48:40.216Z,3.90
2022-10-20T17:51:11.343Z,4.13
2022-10-20T17:53:42.077Z,3.55
2022-10-20T17:56:14.570Z,3.95
2022-10-20T17:58:45.407Z,3.67
2022-10-20T18:01:25.282Z,4.35
2022-10-20T18:04:12.690Z,3.55
2022-10-20T18:06:41.478Z,3.53
2022-10-20T18:09:12.010Z,5.05
2022-10-20T18:11:43.202Z,2.85
2022-10-20T18:14:10.132Z,4.78
2022-10-20T18:16:39.554Z,3.67
2022-10-20T18:19:08.337Z,3.38
2022-10-20T18:21:35.481Z,4.05
2022-10-20T18:24:06.346Z,4.05
2022-10-20T18:26:36.126Z,3.72
2022-10-20T18:29:05.607Z,3.85
2022-10-20T18:31:35.844Z,4.07
2022-10-20T18:34:10.677Z,4.10
2022-10-20T18:36:41.882Z,4.43
2022-10-20T18:39:14.397Z,4.55
2022-10-20T18:41:43.140Z,4.25
2022-10-20T18:44:17.548Z,4.03
2022-10-20T18:46:46.276Z,3.92
2022-10-20T18:49:16.306Z,3.90
2022-10-20T18:51:46.377Z,3.58
2022-10-20T18:54:14.820Z,3.50
2022-10-20T18:56:42.811Z,3.97
2022-10-20T18:59:14.107Z,4.35
2022-10-20T19:01:44.593Z,4.15
2022-10-20T19:04:12.693Z,3.55
2022-10-20T19:06:48.449Z,3.53
2022-10-20T19:09:20.396Z,3.80
2022-10-20T19:14:20.750Z,4.03
2022-10-20T19:16:48.823Z,3.92
2022-10-20T19:19:16.318Z,3.75
2022-10-20T19:21:43.359Z,4.18
2022-10-20T19:24:22.295Z,4.20
2022-10-20T19:27:24.586Z,4.35
2022-10-20T19:29:44.802Z,4.30
2022-10-20T19:32:12.381Z,3.65
2022-10-20T19:34:41.132Z,4.47
2022-10-20T19:37:09.614Z,4.15
2022-10-20T19:39:40.421Z,3.50
2022-10-20T19:42:09.634Z,3.97
2022-10-20T19:44:37.873Z,3.83
2022-10-20T19:47:06.441Z,4.13
2022-10-20T19:49:34.321Z,5.80
2022-10-20T19:52:01.400Z,5.90
2022-10-20T19:54:28.830Z,4.40
2022-10-20T19:56:55.716Z,4.20
2022-10-20T19:59:22.695Z,4.10
2022-10-20T20:01:49.931Z,3.63
2022-10-20T20:04:16.840Z,4.20
2022-10-20T20:06:44.668Z,3.20
2022-10-20T20:09:15.442Z,3.63
2022-10-20T20:11:42.961Z,3.83
2022-10-20T20:14:18.946Z,3.80
2022-10-20T20:16:47.351Z,3.97
2022-10-20T20:19:16.022Z,3.85
2022-10-20T20:21:43.156Z,3.60
2022-10-20T20:24:12.208Z,3.72
2022-10-20T20:26:39.230Z,3.80
2022-10-20T20:29:06.321Z,3.65
2022-10-20T20:31:34.046Z,3.92
2022-10-20T20:34:01.017Z,4.07
2022-10-20T20:36:28.396Z,3.88
2022-10-20T20:38:58.139Z,3.95
2022-10-20T20:41:31.016Z,4.25
2022-10-20T20:43:58.310Z,3.72
2022-10-20T20:46:30.942Z,3.97
2022-10-20T20:48:58.460Z,4.20
2022-10-20T20:51:27.030Z,4.38
2022-10-20T20:53:53.929Z,3.60
2022-10-20T20:56:23.201Z,4.10
2022-10-20T20:58:55.320Z,3.90
2022-10-20T21:01:27.381Z,4.63
2022-10-20T21:04:01.265Z,3.90
2022-10-20T21:06:33.680Z,4.57
2022-10-20T21:09:01.826Z,4.30
2022-10-20T21:11:30.246Z,3.72
2022-10-20T21:13:58.918Z,3.83
2022-10-20T21:16:33.449Z,3.83
2022-10-20T21:19:08.323Z,3.45
2022-10-20T21:21:53.444Z,3.90
2022-10-20T21:24:20.475Z,4.57
2022-10-20T21:26:48.883Z,4.68
2022-10-20T21:29:16.287Z,4.05
2022-10-20T21:31:43.459Z,4.63
2022-10-20T21:34:11.454Z,3.78
2022-10-20T21:36:40.313Z,4.55
2022-10-20T21:39:12.001Z,3.80
2022-10-20T21:41:39.689Z,4.50
2022-10-20T21:44:08.119Z,3.95
2022-10-20T21:46:53.529Z,3.92
2022-10-20T21:49:25.257Z,3.80
2022-10-20T21:51:55.750Z,4.10
2022-10-20T21:54:26.517Z,4.05
2022-10-20T21:56:58.006Z,4.70
2022-10-20T21:59:28.172Z,4.65
2022-10-20T22:01:58.947Z,4.82
2022-10-20T22:04:28.700Z,4.85
2022-10-20T22:06:57.260Z,4.43
2022-10-20T22:09:24.347Z,4.38
2022-10-20T22:11:59.511Z,3.60
2022-10-20T22:14:26.683Z,4.53
2022-10-20T22:16:55.573Z,4.43
2022-10-20T22:19:24.731Z,4.18
2022-10-20T22:21:53.672Z,5.00
2022-10-20T22:24:21.842Z,4.25
2022-10-20T22:26:51.600Z,4.22
2022-10-20T22:29:21.964Z,4.53
2022-10-20T22:31:49.607Z,4.78
2022-10-20T22:34:16.690Z,4.40
2022-10-20T22:36:44.370Z,4.03
2022-10-20T22:41:39.591Z,4.78
2022-10-20T22:44:06.881Z,4.10
2022-10-20T22:46:34.150Z,4.40
2022-10-20T22:49:01.442Z,4.32
2022-10-20T22:51:28.323Z,4.82
2022-10-20T22:53:55.219Z,4.20
2022-10-20T22:56:23.599Z,4.80
2022-10-20T22:58:53.637Z,4.60
2022-10-20T23:01:22.541Z,4.68
2022-10-20T23:04:14.878Z,4.57
2022-10-20T23:06:41.738Z,4.60
2022-10-20T23:09:09.620Z,4.50
2022-10-20T23:11:37.018Z,4.63
2022-10-20T23:14:04.061Z,5.28
2022-10-20T23:16:30.955Z,5.10
2022-10-20T23:18:57.878Z,4.57
2022-10-20T23:21:24.799Z,4.38
2022-10-20T23:23:51.651Z,4.70
2022-10-20T23:26:18.490Z,4.80
2022-10-20T23:28:48.767Z,4.90
2022-10-20T23:31:21.760Z,4.68
2022-10-20T23:33:53.448Z,4.43
2022-10-20T23:36:21.196Z,5.05
2022-10-20T23:38:48.119Z,5.60
2022-10-20T23:41:15.269Z,5.03
2022-10-20T23:43:42.114Z,4.03
2022-10-20T23:46:12.058Z,6.03
2022-10-20T23:48:39.706Z,5.60
2022-10-20T23:51:08.204Z,5.47
2022-10-20T23:53:36.073Z,5.20
2022-10-20T23:56:03.325Z,4.68
2022-10-20T23:58:30.570Z,6.05
